Woodstock, VT

3:42 PM EST on November 26, 2014 (GMT -0500)
Suicide Six Ski Area | Change Station
CLOSE
Current Station
Personal Weather Station
Location: South Pomfret, VT
Elevation: 850 ft
Nearby Weather Stations
Active Advisory: Winter Storm Warning Active Notice: Public Information Statement

Elev 850 ft 43.68 °N, 72.56 °W | Updated 3 seconds ago

Snow
Snow
30.5 °F
Feels Like 30 °F
N
0.0
Wind Variable Wind from North
Gusts 0.0 mph

Today
High -- | Low -- °F
--% Chance of Precip.
Yesterday
High -- | Low -- °F
Precip. -- in
6:57 AM 4:16 PM
Waxing Crescent, 22% visible
Pressure 30.09 in
Visibility 0.8 miles
Clouds Mostly Cloudy 200 ft
Overcast 700 ft
Windchill 30 °F
Dew Point 29 °F
Humidity 94%
Rainfall 0.00 in
Snow Depth Not available.
UV 0 out of 12
Pollen .10 out of 12
Air Quality Not available.
Flu Activity Not available.
SPECI KLEB 262022Z 34004KT 3/4SM -SN BR BKN002 OVC007 00/M01 A3009 RMK AO2 P0005 T00001011

More Conditions Fewer Conditions

Pressure 30.09 in
Visibility 0.8 miles
Clouds Mostly Cloudy 200 ft
Overcast 700 ft
Windchill 30 °F
Dew Point 29 °F
Humidity 94%
Rainfall 0.00 in
Snow Depth Not available.
UV 0 out of 12
Pollen .10 out of 12
Air Quality Not available.
Flu Activity Not available.
SPECI KLEB 262022Z 34004KT 3/4SM -SN BR BKN002 OVC007 00/M01 A3009 RMK AO2 P0005 T00001011

More Conditions Fewer Conditions

10-Day Weather Forecast

Almanac

Astronomy

Nov. 26, 2014 Rise Set
Actual Time
Civil Twilight
Nautical Twilight
Astronomical Twilight
Moon
Length of Visible Light
Length of Day
Tomorrow will be .
, % of the Moon is Illuminated

Today's Extremes

State Highs State Lows

Community

WunderPhotos

Upload Photos

1,773,860 photos uploaded!

WunderBlogs® & News

Nearby

Air Quality

  Air Quality AQ Index Pollutant
Not available.

Snow Depth

Station Depth Elevation

Earthquake Activity

City Distance Mag. Time & Date
Minimum magnitude displayed is 2.5.

Coastal Water Temperatures

Place Temperature

Nearby Weather Stations